Lombardville, Illinois
Current Conditions -  °F | °C
As of 6:15 AM on Friday 28 Nov 2014 (Local Time) from KC75 Reporting Station
Overcast Overcast  
Wind Chill: 10°   Ceiling: 11000
Heat Index: 19°   Visibility: 10mi
Dew Point: 12°   Wind: 7mph
Humidity: 74%   Direction: 170°S
Pressure: 30.28"   Gusts: NA
Location:  41.1472°N, 89.6399°W
Report Text: KC75 281215Z AUTO 17006KT 10SM SCT075 OVC110 M07/M11 A3028 RMK AO2 T10721112
Loading
Personal Weather Stations






























Interactive Weather Map New forecast layout! Learn more

10-Day Weather Forecast

Advertisements
Track Severe Weather on mobile